Campanya Meteocatpedra
Centenari de l'SMC: 100 anys mirant el cel

Dades de l'estació automàtica Camarasa

?
?

Resum diari

22:00 TU
Dades diàries de l'estació meteorològica
Temperatura mitjana 16.1 °C
Temperatura màxima 24.3 °C 14:30 TU
Temperatura mínima 10.2 °C 5:53 TU
Humitat relativa mitjana 65%
Precipitació acumulada 0.0 mm
Ratxa màxima del vent (2 m) 23.4 km/h - 161º 13:29 TU
Irradiació solar global 20.0 MJ/m2

El tram horari està expressat en Temps Universal (TU). Cal sumar una hora en horari d'hivern i dues en horari d'estiu per passar a l'hora oficial.

Camarasa

Metadades estació meteorològica
Municipi Camarasa
Comarca Noguera
Altitud 668 m
Data alta 07.03.2006
Estat actual Operativa
Dades de període
Període
TU
TM
°C
TX
°C
TN
°C
HRM
%
PPT
mm
VVM (2 m)
km/h
DVM (2 m)
graus
VVX (2 m)
km/h
RS
W/m2
00:00 - 00:30 13.4 13.6 13.3 79 0.0 5.8 131 11.5 0
00:30 - 01:00 13.2 13.6 13.0 81 0.0 4.7 139 9.4 0
01:00 - 01:30 12.7 13.0 12.4 83 0.0 4.3 140 7.2 0
01:30 - 02:00 12.0 12.4 11.5 86 0.0 2.5 121 5.8 0
02:00 - 02:30 12.2 12.4 11.7 86 0.0 3.2 151 6.1 0
02:30 - 03:00 12.2 12.5 11.9 87 0.0 3.2 141 7.2 0
03:00 - 03:30 11.9 12.1 11.6 86 0.0 2.9 142 6.1 0
03:30 - 04:00 11.6 11.6 11.5 89 0.0 3.2 149 5.8 0
04:00 - 04:30 11.6 11.7 11.5 92 0.0 2.2 130 4.3 0
04:30 - 05:00 11.1 11.4 11.0 96 0.0 2.2 166 3.6 0
05:00 - 05:30 10.7 11.0 10.4 95 0.0 1.8 133 5.0 0
05:30 - 06:00 10.5 10.7 10.2 98 0.0 1.1 163 4.0 5
06:00 - 06:30 10.9 11.7 10.7 96 0.0 1.8 169 3.2 45
06:30 - 07:00 12.5 13.0 11.9 88 0.0 3.2 156 8.3 165
07:00 - 07:30 13.4 14.0 12.6 82 0.0 4.3 154 7.9 282
07:30 - 08:00 13.4 14.0 12.8 81 0.0 4.7 148 9.7 252
08:00 - 08:30 14.4 15.4 13.1 76 0.0 3.6 150 9.0 441
08:30 - 09:00 15.7 16.1 15.3 70 0.0 4.0 155 12.2 527
09:00 - 09:30 16.3 16.8 16.0 66 0.0 5.4 138 12.6 546
09:30 - 10:00 17.5 18.3 17.0 61 0.0 5.8 148 14.8 717
10:00 - 10:30 18.1 18.5 17.5 59 0.0 7.2 156 16.2 760
10:30 - 11:00 18.6 18.9 18.2 58 0.0 7.6 180 15.8 763
11:00 - 11:30 18.9 20.2 17.8 57 0.0 5.8 167 14.0 647
11:30 - 12:00 20.1 20.5 19.8 52 0.0 6.8 175 15.5 800
12:00 - 12:30 20.5 21.4 19.7 49 0.0 6.1 194 15.5 794
12:30 - 13:00 22.0 22.5 21.2 45 0.0 6.1 220 16.9 773
13:00 - 13:30 21.9 23.3 20.8 44 0.0 4.7 195 23.4 704
13:30 - 14:00 22.8 23.9 21.4 39 0.0 8.3 271 19.4 576
14:00 - 14:30 23.1 23.9 21.5 37 0.0 7.6 248 19.1 646
14:30 - 15:00 23.0 24.3 22.2 35 0.0 10.8 272 22.7 535
15:00 - 15:30 22.2 23.2 21.9 33 0.0 10.4 256 22.3 360
15:30 - 16:00 22.8 23.3 22.0 29 0.0 9.0 253 20.9 393
16:00 - 16:30 21.0 21.7 20.5 32 0.0 7.9 255 18.7 195
16:30 - 17:00 20.6 21.4 19.6 34 0.0 9.0 266 17.3 151
17:00 - 17:30 17.6 19.5 16.4 51 0.0 7.2 293 15.1 40
17:30 - 18:00 16.1 16.4 15.8 57 0.0 6.8 291 16.6 13
18:00 - 18:30 15.6 15.8 15.4 58 0.0 4.7 283 9.4 0
18:30 - 19:00 15.0 15.4 14.7 60 0.0 2.2 120 8.6 0
19:00 - 19:30 15.7 15.9 15.4 57 0.0 6.8 101 14.8 0
19:30 - 20:00 15.5 15.6 15.5 58 0.0 6.8 77 15.5 0
20:00 - 20:30 15.2 15.6 14.6 58 0.0 1.4 66 11.2 0
20:30 - 21:00 14.5 14.9 14.2 61 0.0 2.2 144 9.0 0
21:00 - 21:30 14.4 14.9 14.1 60 0.0 5.8 95 16.9 0
21:30 - 22:00 15.1 15.2 14.9 53 0.0 9.7 75 20.5 0
22:00 - 22:30 14.9 15.2 14.7 52 0.0 6.5 71 13.7 0

Les dades en taronja només han passat un control de qualitat automàtic. Resta pendent la seva validació definitiva.